GMOZZ EGBR-EGSU

Flight info

Callsign GMOZZ
Flight time N/A
Altitude 1500
Route VFR
Aircraft MOSQ/M-VGD/A

Departure

Time N/A
Airport EGBR

Arrival

Time 2026-04-17 20:55
Airport Duxford Aerodrome (EGSU)
Time Latitude Longitude Altitude Speed Heading
2026-04-17 20:02 53.80268 -0.92031 29 ft 0 kts 92°
2026-04-17 20:02 53.80268 -0.92026 29 ft 3 kts 91°
2026-04-17 20:02 53.80281 -0.91917 35 ft 13 kts 98°
2026-04-17 20:02 53.80260 -0.91741 32 ft 18 kts 100°
2026-04-17 20:03 53.80235 -0.91509 33 ft 21 kts 101°
2026-04-17 20:03 53.80200 -0.91290 30 ft 17 kts 134°
2026-04-17 20:03 53.80164 -0.91206 32 ft 0 kts 28°
2026-04-17 20:06 53.80165 -0.91206 32 ft 2 kts 31°
2026-04-17 20:06 53.80218 -0.91154 29 ft 8 kts 284°
2026-04-17 20:06 53.80223 -0.91195 29 ft 1 kts 282°
2026-04-17 20:06 53.80228 -0.91211 29 ft 0 kts 282°
2026-04-17 20:07 53.80255 -0.91482 33 ft 58 kts 278°
2026-04-17 20:07 53.80352 -0.92437 43 ft 103 kts 276°
2026-04-17 20:07 53.80424 -0.93733 317 ft 114 kts 271°
2026-04-17 20:07 53.80290 -0.95111 554 ft 134 kts 226°
2026-04-17 20:08 53.79379 -0.95722 923 ft 143 kts 193°
2026-04-17 20:08 53.78366 -0.95930 1429 ft 145 kts 191°
2026-04-17 20:08 53.77343 -0.96047 1700 ft 157 kts 189°
2026-04-17 20:08 53.76162 -0.96114 1803 ft 183 kts 185°
2026-04-17 20:09 53.74814 -0.96013 1926 ft 203 kts 181°
2026-04-17 20:09 53.73405 -0.95205 2053 ft 223 kts 161°
2026-04-17 20:09 53.71971 -0.94066 2131 ft 235 kts 158°
2026-04-17 20:09 53.70495 -0.92733 2138 ft 246 kts 155°
2026-04-17 20:10 53.69042 -0.91100 2216 ft 253 kts 148°
2026-04-17 20:10 53.67915 -0.89768 4065 ft 89 kts 155°
2026-04-17 20:10 53.67454 -0.88868 4159 ft 149 kts 144°
2026-04-17 20:10 53.66482 -0.87330 2911 ft 245 kts 142°
2026-04-17 20:11 53.65751 -0.86072 5253 ft 27 kts 312°
2026-04-17 20:11 53.66141 -0.86348 4600 ft 86 kts 328°
2026-04-17 20:11 53.64989 -0.85968 1898 ft 274 kts 169°
2026-04-17 20:11 53.63448 -0.84292 1816 ft 218 kts 142°
2026-04-17 20:12 53.62405 -0.82597 2000 ft 198 kts 108°
2026-04-17 20:12 53.61760 -0.80665 1650 ft 193 kts 127°
2026-04-17 20:12 53.61043 -0.78620 1700 ft 217 kts 124°
2026-04-17 20:12 53.60219 -0.76417 1909 ft 222 kts 129°
2026-04-17 20:13 53.59375 -0.74148 2057 ft 236 kts 124°
2026-04-17 20:13 53.58580 -0.71701 2137 ft 247 kts 122°
2026-04-17 20:13 53.57766 -0.69131 2444 ft 244 kts 122°
2026-04-17 20:13 53.56987 -0.66627 2730 ft 248 kts 121°
2026-04-17 20:14 53.56197 -0.63913 2651 ft 264 kts 120°
2026-04-17 20:14 53.55480 -0.61068 2877 ft 267 kts 107°
2026-04-17 20:14 53.55639 -0.57885 2376 ft 297 kts 66°
2026-04-17 20:14 53.56391 -0.54542 2020 ft 307 kts 72°
2026-04-17 20:15 53.55629 -0.51848 2085 ft 272 kts 159°
2026-04-17 20:15 53.53936 -0.50477 2137 ft 270 kts 155°
2026-04-17 20:15 53.52322 -0.48948 2216 ft 248 kts 161°
2026-04-17 20:15 53.50909 -0.47361 2118 ft 249 kts 147°
2026-04-17 20:16 53.49475 -0.45699 2214 ft 250 kts 153°
2026-04-17 20:16 53.47948 -0.44263 2247 ft 255 kts 158°
2026-04-17 20:16 53.46292 -0.43197 2380 ft 253 kts 169°
2026-04-17 20:16 53.44554 -0.42332 2109 ft 269 kts 168°
2026-04-17 20:17 53.42727 -0.41486 2091 ft 274 kts 167°
2026-04-17 20:17 53.40968 -0.40346 2528 ft 270 kts 160°
2026-04-17 20:17 53.39312 -0.39033 3086 ft 255 kts 156°
2026-04-17 20:17 53.37855 -0.37474 3684 ft 244 kts 146°
2026-04-17 20:18 53.36707 -0.35379 4210 ft 239 kts 137°
2026-04-17 20:18 53.35485 -0.33177 2796 ft 294 kts 138°
2026-04-17 20:18 53.33924 -0.30632 2020 ft 313 kts 140°
2026-04-17 20:18 53.32297 -0.28392 2027 ft 298 kts 148°
2026-04-17 20:19 53.30581 -0.26554 1947 ft 289 kts 153°
2026-04-17 20:19 53.28843 -0.24885 1858 ft 284 kts 154°
2026-04-17 20:19 53.27152 -0.23302 2020 ft 272 kts 155°
2026-04-17 20:19 53.25594 -0.21659 2491 ft 254 kts 148°
2026-04-17 20:20 53.24224 -0.19868 2807 ft 252 kts 146°
2026-04-17 20:20 53.22788 -0.18212 2568 ft 238 kts 150°
2026-04-17 20:20 53.21344 -0.16747 1811 ft 257 kts 154°
2026-04-17 20:20 53.19835 -0.15098 1965 ft 259 kts 148°
2026-04-17 20:21 53.18411 -0.13241 2106 ft 261 kts 146°
2026-04-17 20:21 53.16984 -0.11361 2187 ft 262 kts 149°
2026-04-17 20:21 53.15310 -0.09953 1768 ft 276 kts 160°
2026-04-17 20:21 53.13523 -0.08702 1572 ft 277 kts 166°
2026-04-17 20:22 53.11694 -0.08361 1442 ft 266 kts 201°
2026-04-17 20:22 53.10506 -0.10736 776 ft 280 kts 245°
2026-04-17 20:22 53.09858 -0.13850 178 ft 289 kts 252°
2026-04-17 20:22 53.09252 -0.16983 52 ft 279 kts 251°
2026-04-17 20:23 53.08695 -0.19747 1355 ft 193 kts 249°
2026-04-17 20:23 53.07817 -0.21214 1498 ft 223 kts 170°
2026-04-17 20:23 53.06483 -0.19873 1200 ft 260 kts 85°
2026-04-17 20:23 53.07004 -0.16873 1059 ft 272 kts 72°
2026-04-17 20:24 53.07651 -0.13910 928 ft 281 kts 71°
2026-04-17 20:24 53.08664 -0.11486 816 ft 268 kts 351°
2026-04-17 20:24 53.09915 -0.13096 435 ft 256 kts 264°
2026-04-17 20:24 53.09413 -0.16031 96 ft 265 kts 248°
2026-04-17 20:25 53.08856 -0.18878 377 ft 222 kts 250°
2026-04-17 20:25 53.08370 -0.21036 1457 ft 200 kts 219°
2026-04-17 20:25 53.06956 -0.20645 1389 ft 226 kts 163°
2026-04-17 20:25 53.06698 -0.18362 1320 ft 252 kts 70°
2026-04-17 20:26 53.07395 -0.15604 1301 ft 265 kts 66°
2026-04-17 20:26 53.08188 -0.12773 1170 ft 265 kts 67°
2026-04-17 20:26 53.09406 -0.11778 1126 ft 197 kts 328°
2026-04-17 20:26 53.10081 -0.13108 440 ft 154 kts 247°
2026-04-17 20:27 53.09749 -0.14383 126 ft 112 kts 251°
2026-04-17 20:27 53.09555 -0.15360 29 ft 63 kts 251°
2026-04-17 20:27 53.09463 -0.15913 32 ft 41 kts 253°
2026-04-17 20:27 53.09374 -0.16383 31 ft 45 kts 252°
2026-04-17 20:28 53.09271 -0.16901 28 ft 49 kts 251°
2026-04-17 20:28 53.09159 -0.17433 27 ft 44 kts 251°
2026-04-17 20:28 53.09149 -0.17790 26 ft 15 kts 276°
2026-04-17 20:28 53.09212 -0.18056 25 ft 37 kts 294°
2026-04-17 20:29 53.09328 -0.18317 27 ft 20 kts 22°
2026-04-17 20:29 53.09470 -0.18211 28 ft 25 kts 24°
2026-04-17 20:29 53.09614 -0.18102 27 ft 9 kts 77°
2026-04-17 20:29 53.09592 -0.18114 27 ft 7 kts 212°
2026-04-17 20:30 53.09588 -0.18118 27 ft 0 kts 208°
2026-04-17 20:30 53.09584 -0.18121 27 ft 5 kts 208°
2026-04-17 20:31 53.09481 -0.18202 28 ft 27 kts 206°
2026-04-17 20:31 53.09283 -0.18332 27 ft 18 kts 140°
2026-04-17 20:31 53.09225 -0.18133 28 ft 22 kts 116°
2026-04-17 20:31 53.09151 -0.17890 26 ft 25 kts 118°
2026-04-17 20:32 53.09123 -0.17597 26 ft 29 kts 73°
2026-04-17 20:32 53.09190 -0.17257 28 ft 35 kts 73°
2026-04-17 20:32 53.09271 -0.16806 28 ft 46 kts 72°
2026-04-17 20:32 53.09376 -0.16246 32 ft 54 kts 73°
2026-04-17 20:33 53.09483 -0.15648 30 ft 48 kts 70°
2026-04-17 20:33 53.09526 -0.15589 29 ft 9 kts 211°
2026-04-17 20:33 53.09483 -0.15760 31 ft 45 kts 252°
2026-04-17 20:33 53.09334 -0.16549 30 ft 94 kts 242°
2026-04-17 20:34 53.09074 -0.17730 163 ft 117 kts 251°
2026-04-17 20:34 53.08860 -0.19020 397 ft 123 kts 251°
2026-04-17 20:34 53.08579 -0.20448 792 ft 135 kts 249°
2026-04-17 20:34 53.08311 -0.21993 1211 ft 146 kts 254°
2026-04-17 20:35 53.08083 -0.23418 2025 ft 122 kts 245°
2026-04-17 20:35 53.07501 -0.24585 2357 ft 135 kts 221°
2026-04-17 20:35 53.06645 -0.25635 2639 ft 156 kts 216°
2026-04-17 20:35 53.05648 -0.26690 2565 ft 190 kts 216°
2026-04-17 20:36 53.04479 -0.27920 2640 ft 206 kts 218°
2026-04-17 20:36 53.03650 -0.29831 2636 ft 220 kts 254°
2026-04-17 20:36 53.03249 -0.32362 2731 ft 226 kts 253°
2026-04-17 20:36 53.02850 -0.34904 2715 ft 236 kts 254°
2026-04-17 20:37 53.02231 -0.37382 2747 ft 239 kts 212°
2026-04-17 20:37 53.00545 -0.37596 2796 ft 247 kts 182°
2026-04-17 20:37 52.98864 -0.37735 3018 ft 244 kts 188°
2026-04-17 20:37 52.97140 -0.37882 2974 ft 252 kts 184°
2026-04-17 20:38 52.95333 -0.37539 2571 ft 272 kts 170°
2026-04-17 20:38 52.93570 -0.36197 2272 ft 285 kts 152°
2026-04-17 20:38 52.92001 -0.34317 2669 ft 268 kts 148°
2026-04-17 20:38 52.90592 -0.32417 2912 ft 263 kts 145°
2026-04-17 20:39 52.89074 -0.30624 2665 ft 273 kts 151°
2026-04-17 20:39 52.87434 -0.28994 2566 ft 274 kts 154°
2026-04-17 20:39 52.85800 -0.27443 2690 ft 270 kts 156°
2026-04-17 20:39 52.84149 -0.25988 2736 ft 269 kts 156°
2026-04-17 20:40 52.82485 -0.24576 2679 ft 269 kts 160°
2026-04-17 20:40 52.80682 -0.23608 2349 ft 275 kts 170°
2026-04-17 20:40 52.78841 -0.22863 2369 ft 269 kts 171°
2026-04-17 20:40 52.77035 -0.22203 2351 ft 260 kts 170°
2026-04-17 20:41 52.75268 -0.21606 2319 ft 261 kts 174°
2026-04-17 20:41 52.73434 -0.21344 2170 ft 265 kts 182°
2026-04-17 20:41 52.71620 -0.21206 2380 ft 256 kts 181°
2026-04-17 20:41 52.69864 -0.21142 2577 ft 249 kts 186°
2026-04-17 20:42 52.68109 -0.21329 2495 ft 254 kts 189°
2026-04-17 20:42 52.66345 -0.21707 2447 ft 257 kts 191°
2026-04-17 20:42 52.64584 -0.22146 2485 ft 255 kts 194°
2026-04-17 20:42 52.62857 -0.22837 2411 ft 256 kts 197°
2026-04-17 20:43 52.61101 -0.23240 2476 ft 258 kts 183°
2026-04-17 20:43 52.59313 -0.22701 2406 ft 268 kts 161°
2026-04-17 20:43 52.57712 -0.21172 2658 ft 261 kts 152°
2026-04-17 20:43 52.56264 -0.19433 3014 ft 251 kts 149°
2026-04-17 20:44 52.54866 -0.17736 3183 ft 255 kts 147°
2026-04-17 20:44 52.53437 -0.15993 3082 ft 258 kts 151°
2026-04-17 20:44 52.51775 -0.14210 1896 ft 300 kts 151°
2026-04-17 20:44 52.50105 -0.12388 2108 ft 285 kts 150°
2026-04-17 20:45 52.48471 -0.10538 1960 ft 285 kts 148°
2026-04-17 20:45 52.46876 -0.08673 2015 ft 279 kts 148°
2026-04-17 20:45 52.45207 -0.06939 1468 ft 291 kts 156°
2026-04-17 20:45 52.43431 -0.05464 1640 ft 277 kts 155°
2026-04-17 20:46 52.41743 -0.04462 2184 ft 250 kts 174°
2026-04-17 20:46 52.40045 -0.03765 2101 ft 260 kts 167°
2026-04-17 20:46 52.38266 -0.03204 2221 ft 254 kts 175°
2026-04-17 20:46 52.36548 -0.02701 2283 ft 256 kts 173°
2026-04-17 20:47 52.34816 -0.02168 2440 ft 255 kts 175°
2026-04-17 20:47 52.33016 -0.01700 2392 ft 266 kts 174°
2026-04-17 20:47 52.31186 -0.01180 2506 ft 271 kts 174°
2026-04-17 20:47 52.29339 -0.00469 2779 ft 271 kts 166°
2026-04-17 20:48 52.27585 0.00760 2438 ft 287 kts 158°
2026-04-17 20:48 52.25641 0.02376 711 ft 334 kts 156°
2026-04-17 20:48 52.23724 0.04211 784 ft 308 kts 149°
2026-04-17 20:48 52.21928 0.05976 843 ft 291 kts 152°
2026-04-17 20:49 52.20207 0.07489 1119 ft 279 kts 156°
2026-04-17 20:49 52.18491 0.09006 1092 ft 279 kts 154°
2026-04-17 20:49 52.16810 0.10539 1122 ft 274 kts 153°
2026-04-17 20:49 52.15199 0.12130 1270 ft 267 kts 152°
2026-04-17 20:50 52.13606 0.13702 1261 ft 264 kts 151°
2026-04-17 20:50 52.12052 0.15312 1160 ft 268 kts 151°
2026-04-17 20:50 52.10377 0.16321 689 ft 271 kts 211°
2026-04-17 20:50 52.09268 0.13772 274 ft 277 kts 233°
2026-04-17 20:51 52.08275 0.11457 1237 ft 173 kts 169°
2026-04-17 20:51 52.07154 0.12527 1790 ft 211 kts 149°
2026-04-17 20:51 52.07635 0.14880 821 ft 279 kts 45°
2026-04-17 20:51 52.08822 0.17379 689 ft 280 kts 53°
2026-04-17 20:52 52.10215 0.17402 624 ft 197 kts 271°
2026-04-17 20:52 52.10148 0.16247 319 ft 127 kts 238°
2026-04-17 20:52 52.09765 0.15027 362 ft 123 kts 237°
2026-04-17 20:52 52.09373 0.13986 121 ft 93 kts 233°
2026-04-17 20:53 52.09017 0.13084 273 ft 107 kts 236°
2026-04-17 20:53 52.08613 0.11911 621 ft 123 kts 240°
2026-04-17 20:53 52.09051 0.10805 846 ft 155 kts 322°
2026-04-17 20:53 52.10078 0.11093 982 ft 186 kts 56°
2026-04-17 20:54 52.10844 0.12985 982 ft 213 kts 64°
2026-04-17 20:54 52.11564 0.15172 1137 ft 213 kts 90°
2026-04-17 20:54 52.10879 0.16418 891 ft 134 kts 159°
2026-04-17 20:54 52.10168 0.15717 586 ft 141 kts 236°
2026-04-17 20:55 52.09745 0.14480 309 ft 125 kts 236°
2026-04-17 20:55 52.09306 0.13394 120 ft 89 kts 235°
2026-04-17 20:55 52.09094 0.12841 119 ft 23 kts 236°
2026-04-17 20:55 52.09152 0.12741 119 ft 14 kts 332°
2026-04-17 20:56 52.09224 0.12789 118 ft 17 kts 62°
2026-04-17 20:56 52.09296 0.12993 119 ft 23 kts 64°
2026-04-17 20:56 52.09374 0.13258 119 ft 27 kts 58°
2026-04-17 20:56 52.09451 0.13537 117 ft 29 kts 75°
2026-04-17 20:57 52.09551 0.13794 119 ft 24 kts 65°
2026-04-17 20:57 52.09559 0.13853 119 ft 0 kts 78°
2026-04-17 20:57 52.09567 0.13898 118 ft 10 kts 78°
2026-04-17 20:57 52.09579 0.13950 116 ft 3 kts 302°
2026-04-17 20:58 52.09569 0.13880 117 ft 7 kts 256°
2026-04-17 20:58 52.09568 0.13877 117 ft 0 kts 256°